Weather at Bowling Green Warren County Regional Airport

Public forecast

Using degrees Fahrenheit for public forecast. Weather courtesy of forecast.io.

Current aviation weather report (METAR) for Bowling Green Warren County Regional Airport

Retrieved 2020/11/25 07:53 UTC (12 minutes ago):

KBWG 250753Z AUTO 18014G23KT 10SM BKN090 OVC110 14/06 A3000 RMK AO2 SLP157 T01440056

Aviation forecast (TAF) for Bowling Green Warren County Regional Airport

Retrieved 2020/11/25 06:39 UTC (1 hour ago):

TAF KBWG 250536Z 2506/2606 18014G23KT P6SM BKN080 WS015/19050KT FM251200 18020G30KT 6SM -SHRA OVC050 WS020/17055KT FM251500 19022G32KT 6SM -SHRA VCTS BKN021 OVC040CB TEMPO 2515/2519 4SM SHRA BR BKN018 OVC040 FM252000 21020G28KT 6SM -SHRA VCTS BKN025 OVC050CB FM260100 24012G22KT P6SM BKN040